Time;durP1;ratioP1;P1;durP2;ratioP2;P2;SDS_P1;SDS_P2;PMS_P1;PMS_P2;Temp;Humidity;BMP_temperature;BMP_pressure;BME280_temperature;BME280_humidity;BME280_pressure;Samples;Min_cycle;Max_cycle;Signal;HPM_P1;HPM_P2
2023/07/07 00:01:21;;;;;;;;;;;13.20;99.90;;;;;;5016411;28;19921;-89
2023/07/07 00:03:47;;;;;;;;;;;13.20;99.90;;;;;;5005228;28;19967;-89
2023/07/07 00:06:12;;;;;;;;;;;13.20;99.90;;;;;;5020100;28;19999;-89
2023/07/07 00:08:38;;;;;;;;;;;13.10;99.90;;;;;;5019967;28;19933;-89
2023/07/07 00:11:04;;;;;;;;;;;13.10;99.90;;;;;;5002242;28;19929;-89
2023/07/07 00:13:30;;;;;;;;;;;13.10;99.90;;;;;;5032020;28;19968;-89
2023/07/07 00:16:00;;;;;;;;;;;13.10;99.90;;;;;;5030055;28;19913;-90
2023/07/07 00:18:29;;;;;;;;;;;13.10;99.90;;;;;;5025020;28;19913;-88
2023/07/07 00:21:01;;;;;;;;;;;13.00;99.90;;;;;;5017071;28;19921;-89
2023/07/07 00:23:29;;;;;;;;;;;13.10;99.90;;;;;;5025496;28;19914;-89
2023/07/07 00:26:02;;;;;;;;;;;13.00;99.90;;;;;;5032125;28;19941;-90
2023/07/07 00:28:28;;;;;;;;;;;13.00;99.90;;;;;;5035500;28;19969;-88
2023/07/07 00:30:53;;;;;;;;;;;13.00;99.90;;;;;;5022779;28;19941;-89
2023/07/07 00:33:19;;;;;;;;;;;13.00;99.90;;;;;;5011161;28;20247;-90
2023/07/07 00:35:46;;;;;;;;;;;13.00;99.90;;;;;;5007317;28;19953;-90
2023/07/07 00:38:12;;;;;;;;;;;13.00;99.90;;;;;;5004143;28;19937;-90
2023/07/07 00:40:37;;;;;;;;;;;12.90;99.90;;;;;;5006083;28;20299;-90
2023/07/07 00:43:09;;;;;;;;;;;12.90;99.90;;;;;;4999136;28;20312;-90
2023/07/07 00:45:34;;;;;;;;;;;12.80;99.90;;;;;;5005702;28;20004;-90
2023/07/07 00:48:02;;;;;;;;;;;12.80;99.90;;;;;;4995526;28;20035;-91
2023/07/07 00:50:30;;;;;;;;;;;12.80;99.90;;;;;;5004604;28;19922;-89
2023/07/07 00:52:55;;;;;;;;;;;12.80;99.90;;;;;;4999654;28;20057;-90
2023/07/07 00:55:41;;;;;;;;;;;12.70;99.90;;;;;;4999655;28;20386;-91
2023/07/07 00:58:09;;;;;;;;;;;12.70;99.90;;;;;;5009904;28;19922;-90
2023/07/07 01:00:36;;;;;;;;;;;12.70;99.90;;;;;;5016789;28;20281;-91
2023/07/07 01:03:05;;;;;;;;;;;12.70;99.90;;;;;;5009086;28;19922;-90
2023/07/07 01:05:31;;;;;;;;;;;12.60;99.90;;;;;;5004210;28;19928;-90
2023/07/07 01:07:59;;;;;;;;;;;12.60;99.90;;;;;;4986253;28;19943;-89
2023/07/07 01:10:24;;;;;;;;;;;12.60;99.90;;;;;;5004704;28;19921;-90
2023/07/07 01:12:50;;;;;;;;;;;12.60;99.90;;;;;;5008157;28;20350;-89
2023/07/07 01:15:16;;;;;;;;;;;12.60;99.90;;;;;;5013836;28;19967;-90
2023/07/07 01:17:41;;;;;;;;;;;12.60;99.90;;;;;;5008883;28;19996;-89
2023/07/07 01:20:09;;;;;;;;;;;12.60;99.90;;;;;;5008955;28;20357;-89
2023/07/07 01:22:37;;;;;;;;;;;12.50;99.90;;;;;;5008077;28;19921;-89
2023/07/07 01:25:03;;;;;;;;;;;12.50;99.90;;;;;;5002544;28;20008;-89
2023/07/07 01:27:29;;;;;;;;;;;12.40;99.90;;;;;;5009150;28;19964;-88
2023/07/07 01:30:14;;;;;;;;;;;12.40;99.90;;;;;;5002993;28;19925;-90
2023/07/07 01:32:40;;;;;;;;;;;12.40;99.90;;;;;;5002180;28;19932;-90
2023/07/07 01:35:09;;;;;;;;;;;12.40;99.90;;;;;;5002989;28;19925;-90
2023/07/07 01:37:35;;;;;;;;;;;12.30;99.90;;;;;;5007303;28;19921;-88
2023/07/07 01:40:02;;;;;;;;;;;12.30;99.90;;;;;;5012855;28;19921;-89
2023/07/07 01:42:32;;;;;;;;;;;12.30;99.90;;;;;;5014514;28;20274;-91
2023/07/07 01:45:07;;;;;;;;;;;12.20;99.90;;;;;;5007186;28;20326;-87
2023/07/07 01:47:34;;;;;;;;;;;12.20;99.90;;;;;;5008342;28;19995;-90
2023/07/07 01:50:22;;;;;;;;;;;12.10;99.90;;;;;;5017348;28;19975;-90
2023/07/07 01:52:55;;;;;;;;;;;12.10;99.90;;;;;;5015734;28;19921;-90
2023/07/07 01:55:32;;;;;;;;;;;12.10;99.90;;;;;;5004974;28;20258;-91
2023/07/07 01:58:00;;;;;;;;;;;12.10;99.90;;;;;;4998134;28;19949;-90
2023/07/07 02:00:26;;;;;;;;;;;12.10;99.90;;;;;;5010394;28;20001;-90
2023/07/07 02:02:53;;;;;;;;;;;12.10;99.90;;;;;;5012598;28;20323;-90
2023/07/07 02:05:18;;;;;;;;;;;12.00;99.90;;;;;;5010279;28;19932;-90
2023/07/07 02:07:44;;;;;;;;;;;12.10;99.90;;;;;;5010937;28;19926;-91
2023/07/07 02:10:10;;;;;;;;;;;12.00;99.90;;;;;;4999518;28;19925;-90
2023/07/07 02:12:36;;;;;;;;;;;12.10;99.90;;;;;;5000409;28;19922;-90
2023/07/07 02:15:01;;;;;;;;;;;12.10;99.90;;;;;;4993142;28;19921;-89
2023/07/07 02:17:28;;;;;;;;;;;12.10;99.90;;;;;;5007627;28;19921;-90
2023/07/07 02:19:57;;;;;;;;;;;12.10;99.90;;;;;;5010980;28;19926;-90
2023/07/07 02:22:23;;;;;;;;;;;12.10;99.90;;;;;;5012481;28;19944;-90
2023/07/07 02:24:48;;;;;;;;;;;12.10;99.90;;;;;;5011643;28;19921;-89
2023/07/07 02:27:14;;;;;;;;;;;12.10;99.90;;;;;;4994315;28;19969;-89
2023/07/07 02:29:40;;;;;;;;;;;12.10;99.90;;;;;;5014559;28;19921;-90
2023/07/07 02:32:06;;;;;;;;;;;12.10;99.90;;;;;;5007089;28;20328;-90
2023/07/07 02:34:31;;;;;;;;;;;12.10;99.90;;;;;;5006618;28;19968;-90
2023/07/07 02:36:58;;;;;;;;;;;12.10;99.90;;;;;;5005855;28;19965;-90
2023/07/07 02:39:24;;;;;;;;;;;12.10;99.90;;;;;;4995314;28;20011;-89
2023/07/07 02:41:49;;;;;;;;;;;12.00;99.90;;;;;;5008511;28;20012;-89
2023/07/07 02:44:15;;;;;;;;;;;12.00;99.90;;;;;;5004277;28;19976;-90
2023/07/07 02:46:41;;;;;;;;;;;12.00;99.90;;;;;;5002455;28;20438;-90
2023/07/07 02:49:07;;;;;;;;;;;12.00;99.90;;;;;;5008784;28;19996;-90
2023/07/07 02:51:32;;;;;;;;;;;12.00;99.90;;;;;;5007637;28;19944;-90
2023/07/07 02:53:58;;;;;;;;;;;12.00;99.90;;;;;;4992706;28;19944;-92
2023/07/07 02:56:25;;;;;;;;;;;12.00;99.90;;;;;;5004846;28;19929;-90
2023/07/07 02:58:50;;;;;;;;;;;11.90;99.90;;;;;;5015039;28;19925;-90
2023/07/07 03:01:17;;;;;;;;;;;11.90;99.90;;;;;;5008727;28;20427;-90
2023/07/07 03:03:43;;;;;;;;;;;11.90;99.90;;;;;;5008354;28;20096;-89
2023/07/07 03:06:15;;;;;;;;;;;11.90;99.90;;;;;;5008495;28;19921;-90
2023/07/07 03:08:42;;;;;;;;;;;11.90;99.90;;;;;;5013329;28;19929;-89
2023/07/07 03:11:09;;;;;;;;;;;11.90;99.90;;;;;;5000773;28;19940;-88
2023/07/07 03:13:36;;;;;;;;;;;11.90;99.90;;;;;;5013745;28;20369;-90
2023/07/07 03:16:08;;;;;;;;;;;11.90;99.90;;;;;;5004677;28;20351;-89
2023/07/07 03:18:34;;;;;;;;;;;11.90;99.90;;;;;;5011306;28;19932;-89
2023/07/07 03:21:00;;;;;;;;;;;11.90;99.90;;;;;;5009000;28;20273;-89
2023/07/07 03:23:25;;;;;;;;;;;11.90;99.90;;;;;;5012247;28;19928;-90
2023/07/07 03:25:51;;;;;;;;;;;11.90;99.90;;;;;;5011267;28;19964;-89
2023/07/07 03:28:16;;;;;;;;;;;11.90;99.90;;;;;;5010456;28;19925;-90
2023/07/07 03:30:42;;;;;;;;;;;11.90;99.90;;;;;;4999640;28;19980;-89
2023/07/07 03:33:08;;;;;;;;;;;11.90;99.90;;;;;;5011133;28;19922;-89
2023/07/07 03:35:33;;;;;;;;;;;12.00;99.90;;;;;;5007846;28;20031;-90
2023/07/07 03:37:59;;;;;;;;;;;12.00;99.90;;;;;;5008621;28;19929;-89
2023/07/07 03:40:24;;;;;;;;;;;12.00;99.90;;;;;;4995333;28;19979;-89
2023/07/07 03:42:50;;;;;;;;;;;11.90;99.90;;;;;;5011080;28;19968;-90
2023/07/07 03:45:16;;;;;;;;;;;12.00;99.90;;;;;;5013165;28;20342;-91
2023/07/07 03:47:43;;;;;;;;;;;12.00;99.90;;;;;;5012657;28;19921;-90
2023/07/07 03:50:09;;;;;;;;;;;12.00;99.90;;;;;;5008274;28;19922;-88
2023/07/07 03:52:35;;;;;;;;;;;12.00;99.90;;;;;;5008278;28;19921;-90
2023/07/07 03:55:01;;;;;;;;;;;12.00;99.90;;;;;;5011006;28;19967;-88
2023/07/07 03:57:27;;;;;;;;;;;12.10;99.90;;;;;;5022354;28;19926;-90
2023/07/07 03:59:52;;;;;;;;;;;12.20;99.90;;;;;;5008388;28;20320;-88
2023/07/07 04:02:18;;;;;;;;;;;12.40;99.90;;;;;;5010817;28;19922;-89
2023/07/07 04:04:44;;;;;;;;;;;12.50;99.90;;;;;;5011931;28;20463;-90
2023/07/07 04:07:10;;;;;;;;;;;12.50;99.90;;;;;;5012341;28;19921;-89
2023/07/07 04:09:36;;;;;;;;;;;12.50;99.90;;;;;;5013353;28;19922;-90
2023/07/07 04:12:01;;;;;;;;;;;12.60;99.90;;;;;;5000428;28;19958;-90
2023/07/07 04:14:28;;;;;;;;;;;12.70;99.90;;;;;;5003997;28;19922;-89
2023/07/07 04:16:53;;;;;;;;;;;12.70;99.90;;;;;;5013404;28;19922;-90
2023/07/07 04:19:20;;;;;;;;;;;12.80;99.90;;;;;;4995584;28;19933;-90
2023/07/07 04:21:46;;;;;;;;;;;12.80;99.90;;;;;;5004206;28;20281;-89
2023/07/07 04:24:11;;;;;;;;;;;12.80;99.90;;;;;;5012156;28;19921;-90
2023/07/07 04:26:38;;;;;;;;;;;12.90;99.90;;;;;;4993661;28;19922;-89
2023/07/07 04:29:04;;;;;;;;;;;12.90;99.90;;;;;;5005432;28;19932;-90
2023/07/07 04:31:30;;;;;;;;;;;12.90;99.90;;;;;;4994934;28;20269;-90
2023/07/07 04:33:56;;;;;;;;;;;13.00;99.90;;;;;;5005803;28;19976;-89
2023/07/07 04:36:22;;;;;;;;;;;13.00;99.90;;;;;;5011351;28;19945;-90
2023/07/07 04:38:49;;;;;;;;;;;13.00;99.90;;;;;;4998378;28;19949;-90
2023/07/07 04:41:14;;;;;;;;;;;13.00;99.90;;;;;;5004405;28;20021;-90
2023/07/07 04:43:41;;;;;;;;;;;13.10;99.90;;;;;;5009299;28;20004;-89
2023/07/07 04:46:08;;;;;;;;;;;13.10;99.90;;;;;;5012339;28;20004;-89
2023/07/07 04:48:33;;;;;;;;;;;13.20;99.90;;;;;;5005378;28;20017;-90
2023/07/07 04:50:59;;;;;;;;;;;13.20;99.90;;;;;;5011545;28;20004;-89
2023/07/07 04:53:28;;;;;;;;;;;13.30;99.90;;;;;;5012489;28;19975;-88
2023/07/07 04:55:55;;;;;;;;;;;13.40;99.90;;;;;;5010022;28;19926;-90
2023/07/07 04:58:21;;;;;;;;;;;13.40;99.90;;;;;;5002604;28;20013;-89
2023/07/07 05:00:47;;;;;;;;;;;13.50;99.90;;;;;;4985965;28;20012;-90
2023/07/07 05:03:12;;;;;;;;;;;13.50;99.90;;;;;;5008498;28;19921;-89
2023/07/07 05:05:38;;;;;;;;;;;13.50;99.90;;;;;;5020795;28;19921;-89
2023/07/07 05:08:03;;;;;;;;;;;13.50;99.90;;;;;;5010464;28;19929;-89
2023/07/07 05:10:29;;;;;;;;;;;13.50;99.90;;;;;;5011542;28;20322;-89
2023/07/07 05:12:54;;;;;;;;;;;13.10;99.90;;;;;;5006543;28;20017;-90
2023/07/07 05:15:23;;;;;;;;;;;13.70;99.90;;;;;;5014496;28;19921;-89
2023/07/07 05:17:50;;;;;;;;;;;13.70;99.90;;;;;;5015951;28;19948;-89
2023/07/07 05:20:15;;;;;;;;;;;13.70;99.90;;;;;;4998341;28;19922;-89
2023/07/07 05:22:41;;;;;;;;;;;13.80;99.90;;;;;;5006971;28;20362;-90
2023/07/07 05:25:07;;;;;;;;;;;13.90;99.90;;;;;;5011651;28;19968;-90
2023/07/07 05:27:32;;;;;;;;;;;13.90;99.90;;;;;;4994741;28;19925;-90
2023/07/07 05:29:58;;;;;;;;;;;14.00;99.90;;;;;;4990426;28;19921;-89
2023/07/07 05:32:23;;;;;;;;;;;14.00;99.90;;;;;;5007896;28;19926;-88
2023/07/07 05:34:49;;;;;;;;;;;14.20;99.90;;;;;;5013557;28;19921;-89
2023/07/07 05:37:15;;;;;;;;;;;14.30;99.90;;;;;;5016558;28;20372;-90
2023/07/07 05:39:40;;;;;;;;;;;14.40;99.90;;;;;;4996051;28;19953;-89
2023/07/07 05:42:06;;;;;;;;;;;14.40;99.90;;;;;;4996694;28;19970;-90
2023/07/07 05:44:32;;;;;;;;;;;14.40;99.90;;;;;;5008450;28;19921;-89
2023/07/07 05:46:57;;;;;;;;;;;14.60;99.90;;;;;;4995568;28;19976;-90
2023/07/07 05:49:24;;;;;;;;;;;14.60;99.90;;;;;;4994440;28;19933;-88
2023/07/07 05:51:50;;;;;;;;;;;14.70;99.90;;;;;;5006475;28;19964;-89
2023/07/07 05:54:16;;;;;;;;;;;14.80;99.90;;;;;;5007345;28;19981;-87
2023/07/07 05:56:41;;;;;;;;;;;14.80;99.90;;;;;;5009314;28;19921;-87
2023/07/07 05:59:07;;;;;;;;;;;14.80;99.90;;;;;;5011401;28;19929;-87
2023/07/07 06:01:35;;;;;;;;;;;14.80;99.90;;;;;;5010937;28;20368;-86
2023/07/07 06:04:01;;;;;;;;;;;14.90;99.90;;;;;;5007311;28;19921;-86
2023/07/07 06:06:26;;;;;;;;;;;14.90;99.90;;;;;;5000545;28;19941;-85
2023/07/07 06:08:52;;;;;;;;;;;15.00;99.90;;;;;;5008679;28;19929;-85
2023/07/07 06:11:17;;;;;;;;;;;15.10;99.90;;;;;;5002983;28;19925;-87
2023/07/07 06:13:43;;;;;;;;;;;15.10;99.90;;;;;;5008895;28;20043;-88
2023/07/07 06:16:09;;;;;;;;;;;15.20;99.90;;;;;;5009216;28;19928;-87
2023/07/07 06:18:34;;;;;;;;;;;15.30;99.90;;;;;;5008203;28;19980;-87
2023/07/07 06:21:00;;;;;;;;;;;15.30;99.90;;;;;;5009068;28;19940;-87
2023/07/07 06:23:26;;;;;;;;;;;15.40;99.90;;;;;;5008957;28;19921;-86
2023/07/07 06:25:52;;;;;;;;;;;15.50;99.90;;;;;;5008898;28;19928;-86
2023/07/07 06:28:18;;;;;;;;;;;15.50;99.90;;;;;;5009400;28;20360;-87
2023/07/07 06:30:46;;;;;;;;;;;15.60;99.90;;;;;;4993851;28;19925;-87
2023/07/07 06:33:12;;;;;;;;;;;15.70;99.90;;;;;;5002377;28;20654;-86
2023/07/07 06:35:37;;;;;;;;;;;15.80;99.90;;;;;;5006941;28;19995;-88
2023/07/07 06:38:03;;;;;;;;;;;15.80;99.90;;;;;;5005562;28;20029;-88
2023/07/07 06:40:29;;;;;;;;;;;15.90;99.90;;;;;;5007214;28;20375;-88
2023/07/07 06:42:55;;;;;;;;;;;16.00;99.90;;;;;;5010526;28;19999;-88
2023/07/07 06:45:21;;;;;;;;;;;16.00;99.90;;;;;;5012624;28;20353;-88
2023/07/07 06:47:47;;;;;;;;;;;16.10;99.90;;;;;;5007235;28;19976;-87
2023/07/07 06:50:20;;;;;;;;;;;16.20;99.90;;;;;;5011940;28;19925;-87
2023/07/07 06:52:45;;;;;;;;;;;16.30;99.90;;;;;;5002102;28;19933;-88
2023/07/07 06:55:11;;;;;;;;;;;16.30;99.90;;;;;;5009911;28;19972;-89
2023/07/07 06:57:37;;;;;;;;;;;16.50;99.90;;;;;;5002175;28;19988;-88
2023/07/07 07:00:02;;;;;;;;;;;16.50;99.90;;;;;;4994242;28;19921;-88
2023/07/07 07:02:28;;;;;;;;;;;16.60;99.90;;;;;;5010700;28;19928;-87
2023/07/07 07:04:54;;;;;;;;;;;16.70;99.90;;;;;;5008744;28;20293;-88
2023/07/07 07:07:19;;;;;;;;;;;16.70;99.90;;;;;;4991671;28;19983;-88
2023/07/07 07:09:45;;;;;;;;;;;16.80;99.90;;;;;;5007628;28;19996;-89
2023/07/07 07:12:10;;;;;;;;;;;16.80;99.90;;;;;;5007610;28;19922;-89
2023/07/07 07:14:36;;;;;;;;;;;16.90;99.90;;;;;;5002744;28;20468;-90
2023/07/07 07:17:01;;;;;;;;;;;16.90;99.90;;;;;;5008813;28;20251;-89
2023/07/07 07:19:27;;;;;;;;;;;17.00;99.90;;;;;;5009134;28;20012;-88
2023/07/07 07:21:53;;;;;;;;;;;17.00;99.90;;;;;;5008709;28;20270;-91
2023/07/07 07:24:19;;;;;;;;;;;17.10;99.90;;;;;;5009793;28;19933;-90
2023/07/07 07:26:44;;;;;;;;;;;17.10;99.90;;;;;;5008770;28;20448;-89
2023/07/07 07:29:14;;;;;;;;;;;17.30;99.90;;;;;;5008869;28;20024;-87
2023/07/07 07:31:40;;;;;;;;;;;17.30;99.90;;;;;;5003456;28;19922;-87
2023/07/07 07:34:19;;;;;;;;;;;17.40;99.90;;;;;;4993465;28;19960;-88
2023/07/07 07:36:45;;;;;;;;;;;17.50;99.90;;;;;;5006108;28;20324;-88
2023/07/07 07:39:11;;;;;;;;;;;17.60;99.90;;;;;;5005541;28;20016;-89
2023/07/07 07:41:36;;;;;;;;;;;17.70;99.90;;;;;;4986185;28;19933;-88
2023/07/07 07:44:02;;;;;;;;;;;17.80;99.90;;;;;;5006180;28;19933;-89
2023/07/07 07:46:28;;;;;;;;;;;17.90;99.90;;;;;;5002132;28;19925;-87
2023/07/07 07:48:53;;;;;;;;;;;18.10;99.90;;;;;;5009629;28;20262;-88
2023/07/07 07:51:19;;;;;;;;;;;18.20;99.90;;;;;;5006082;28;19929;-88
2023/07/07 07:53:44;;;;;;;;;;;18.30;99.90;;;;;;5007692;28;19980;-90
2023/07/07 07:56:10;;;;;;;;;;;18.30;99.90;;;;;;5006865;28;20000;-95
2023/07/07 07:58:37;;;;;;;;;;;18.40;99.90;;;;;;4977651;28;19926;-88
2023/07/07 08:01:03;;;;;;;;;;;18.60;99.90;;;;;;4991512;28;19951;-88
2023/07/07 08:03:28;;;;;;;;;;;18.60;99.90;;;;;;5009268;28;19922;-87
2023/07/07 08:05:54;;;;;;;;;;;18.70;99.90;;;;;;5005490;28;19926;-87
2023/07/07 08:08:19;;;;;;;;;;;18.80;99.90;;;;;;4972706;28;19948;-88
2023/07/07 08:10:45;;;;;;;;;;;18.90;99.90;;;;;;4999561;28;19983;-87
2023/07/07 08:13:10;;;;;;;;;;;18.90;99.90;;;;;;4999464;28;19921;-86
2023/07/07 08:15:36;;;;;;;;;;;19.10;99.90;;;;;;5002164;28;20362;-87
2023/07/07 08:18:02;;;;;;;;;;;19.20;99.90;;;;;;5000377;28;19948;-87
2023/07/07 08:20:27;;;;;;;;;;;19.30;99.90;;;;;;5001388;28;20420;-87
2023/07/07 08:22:53;;;;;;;;;;;19.40;99.90;;;;;;5010405;28;20364;-87
2023/07/07 08:25:19;;;;;;;;;;;19.40;99.90;;;;;;5007687;28;19929;-87
2023/07/07 08:27:45;;;;;;;;;;;19.40;99.90;;;;;;5009626;28;20478;-86
2023/07/07 08:30:11;;;;;;;;;;;19.60;99.90;;;;;;5010706;28;19921;-87
2023/07/07 08:32:36;;;;;;;;;;;19.70;99.90;;;;;;4999250;28;19921;-87
2023/07/07 08:35:02;;;;;;;;;;;19.70;99.90;;;;;;4989155;28;19945;-88
2023/07/07 08:37:28;;;;;;;;;;;19.80;99.90;;;;;;5005210;28;19922;-86
2023/07/07 08:39:54;;;;;;;;;;;19.90;99.90;;;;;;4988779;28;19957;-87
2023/07/07 08:42:23;;;;;;;;;;;20.00;99.90;;;;;;5003612;28;19968;-87
2023/07/07 08:44:49;;;;;;;;;;;20.10;99.90;;;;;;5003609;28;20063;-88
2023/07/07 08:47:33;;;;;;;;;;;20.20;99.90;;;;;;5000361;28;20001;-85
2023/07/07 08:49:59;;;;;;;;;;;20.30;99.90;;;;;;5007194;28;19987;-87
2023/07/07 08:52:25;;;;;;;;;;;20.50;99.90;;;;;;5006800;28;20007;-87
2023/07/07 08:54:58;;;;;;;;;;;20.70;99.90;;;;;;5004106;28;19933;-88
2023/07/07 08:57:27;;;;;;;;;;;20.70;99.90;;;;;;5005663;28;19922;-88
2023/07/07 09:00:11;;;;;;;;;;;20.90;99.90;;;;;;5005310;28;19979;-87
2023/07/07 09:02:55;;;;;;;;;;;21.00;99.90;;;;;;5006859;28;19975;-87
2023/07/07 09:05:24;;;;;;;;;;;21.10;99.90;;;;;;5004824;28;19921;-86
2023/07/07 09:08:03;;;;;;;;;;;21.10;99.90;;;;;;5001477;28;19980;-88
2023/07/07 09:10:28;;;;;;;;;;;21.20;99.90;;;;;;5002623;28;20457;-84
2023/07/07 09:12:59;;;;;;;;;;;21.30;99.90;;;;;;5000090;28;20090;-87
2023/07/07 09:15:36;;;;;;;;;;;21.40;99.90;;;;;;5003027;28;19972;-85
2023/07/07 09:18:28;;;;;;;;;;;21.50;99.90;;;;;;5005222;28;20285;-86
2023/07/07 09:20:55;;;;;;;;;;;21.60;99.90;;;;;;5006557;28;20374;-87
2023/07/07 09:23:24;;;;;;;;;;;21.60;99.90;;;;;;5006422;28;19959;-88
2023/07/07 09:25:52;;;;;;;;;;;21.70;99.90;;;;;;4996875;28;20336;-87
2023/07/07 09:28:18;;;;;;;;;;;21.90;99.90;;;;;;4991814;28;19976;-87
2023/07/07 09:30:50;;;;;;;;;;;22.00;99.90;;;;;;5005625;28;20008;-87
2023/07/07 09:33:17;;;;;;;;;;;22.10;99.90;;;;;;5003748;28;19968;-85
2023/07/07 09:36:01;;;;;;;;;;;22.30;99.90;;;;;;5015251;28;19925;-87
2023/07/07 09:38:33;;;;;;;;;;;22.30;99.90;;;;;;5005152;28;20289;-88
2023/07/07 09:40:59;;;;;;;;;;;22.50;99.40;;;;;;5004170;28;19952;-86
2023/07/07 09:43:41;;;;;;;;;;;22.50;99.00;;;;;;5003118;28;19922;-86
2023/07/07 09:46:15;;;;;;;;;;;22.60;99.90;;;;;;5007373;28;19925;-87
2023/07/07 09:48:51;;;;;;;;;;;22.70;98.10;;;;;;5000163;28;19969;-88
2023/07/07 09:51:16;;;;;;;;;;;22.70;99.90;;;;;;5010752;28;19971;-88
2023/07/07 09:53:43;;;;;;;;;;;22.80;99.90;;;;;;5009240;28;19969;-86
2023/07/07 09:56:13;;;;;;;;;;;22.90;99.90;;;;;;4996901;28;19944;-86
2023/07/07 09:58:41;;;;;;;;;;;23.00;99.90;;;;;;5010237;28;19921;-87
2023/07/07 10:01:08;;;;;;;;;;;23.00;97.40;;;;;;5005437;28;19987;-87
2023/07/07 10:03:47;;;;;;;;;;;23.10;98.30;;;;;;5005221;28;19937;-87
2023/07/07 10:06:37;;;;;;;;;;;23.20;97.70;;;;;;5003949;28;19917;-86
2023/07/07 10:09:03;;;;;;;;;;;23.30;97.70;;;;;;5004565;28;19934;-87
2023/07/07 10:11:28;;;;;;;;;;;23.40;98.50;;;;;;4992677;28;19922;-87
2023/07/07 10:13:55;;;;;;;;;;;23.50;96.80;;;;;;5005527;28;20327;-87
2023/07/07 10:16:23;;;;;;;;;;;23.50;96.30;;;;;;5011634;28;19922;-86
2023/07/07 10:18:49;;;;;;;;;;;23.60;94.20;;;;;;5015459;28;19929;-87
2023/07/07 10:21:16;;;;;;;;;;;23.60;95.10;;;;;;5012694;28;19991;-86
2023/07/07 10:23:42;;;;;;;;;;;23.70;95.20;;;;;;5011608;28;19921;-86
2023/07/07 10:26:07;;;;;;;;;;;23.70;94.80;;;;;;5006771;28;19979;-86
2023/07/07 10:28:33;;;;;;;;;;;23.80;96.80;;;;;;5012306;28;19936;-86
2023/07/07 10:30:59;;;;;;;;;;;23.90;95.40;;;;;;5009305;28;19926;-87
2023/07/07 10:33:25;;;;;;;;;;;24.00;93.60;;;;;;5008217;28;19922;-87
2023/07/07 10:35:50;;;;;;;;;;;24.00;94.30;;;;;;5010691;28;19921;-87
2023/07/07 10:38:16;;;;;;;;;;;24.10;94.30;;;;;;5012619;28;19929;-89
2023/07/07 10:40:42;;;;;;;;;;;24.10;91.50;;;;;;5006793;28;20342;-87
2023/07/07 10:43:15;;;;;;;;;;;24.10;94.80;;;;;;5002933;28;20320;-87
2023/07/07 10:45:48;;;;;;;;;;;24.20;93.50;;;;;;5006858;28;19925;-87
2023/07/07 10:48:15;;;;;;;;;;;24.30;92.20;;;;;;5011624;28;19979;-87
2023/07/07 10:50:49;;;;;;;;;;;24.20;93.00;;;;;;5012399;28;20573;-87
2023/07/07 10:53:21;;;;;;;;;;;24.20;90.00;;;;;;5009941;28;20381;-87
2023/07/07 10:55:47;;;;;;;;;;;24.20;92.40;;;;;;5006701;28;20021;-85
2023/07/07 10:58:24;;;;;;;;;;;24.30;93.10;;;;;;5010668;28;20000;-88
2023/07/07 11:01:07;;;;;;;;;;;24.40;94.20;;;;;;5010444;28;19997;-88
2023/07/07 11:03:39;;;;;;;;;;;24.40;92.90;;;;;;5010387;28;19969;-87
2023/07/07 11:06:19;;;;;;;;;;;24.10;90.00;;;;;;5009038;28;19933;-87
2023/07/07 11:08:51;;;;;;;;;;;24.10;93.20;;;;;;5011258;28;19922;-87
2023/07/07 11:11:21;;;;;;;;;;;24.20;92.80;;;;;;5010899;28;19926;-87
2023/07/07 11:14:07;;;;;;;;;;;24.40;93.20;;;;;;5008199;28;20342;-89
2023/07/07 11:16:51;;;;;;;;;;;24.70;94.90;;;;;;5002512;28;19976;-88
2023/07/07 11:19:32;;;;;;;;;;;24.90;93.90;;;;;;5007433;28;20557;-88
2023/07/07 11:22:17;;;;;;;;;;;25.00;89.30;;;;;;5008762;28;20253;-87
2023/07/07 11:24:46;;;;;;;;;;;25.00;87.10;;;;;;5002993;28;19969;-87
2023/07/07 11:27:26;;;;;;;;;;;25.00;87.70;;;;;;5010635;28;19925;-87
2023/07/07 11:29:57;;;;;;;;;;;24.90;90.60;;;;;;5013092;28;20273;-89
2023/07/07 11:32:23;;;;;;;;;;;24.90;90.70;;;;;;5010657;28;20004;-89
2023/07/07 11:34:59;;;;;;;;;;;25.00;90.70;;;;;;5010178;28;19956;-89
2023/07/07 11:37:34;;;;;;;;;;;25.10;90.20;;;;;;5010785;28;20299;-88
2023/07/07 11:40:19;;;;;;;;;;;25.30;87.70;;;;;;5009867;28;19925;-88
2023/07/07 11:42:59;;;;;;;;;;;25.40;90.10;;;;;;5006887;28;19925;-89
2023/07/07 11:45:25;;;;;;;;;;;25.30;88.50;;;;;;5005869;28;19925;-86
2023/07/07 11:48:06;;;;;;;;;;;25.70;84.80;;;;;;5006013;28;19928;-87
2023/07/07 11:50:37;;;;;;;;;;;25.80;87.80;;;;;;4985109;28;19996;-88
2023/07/07 11:53:09;;;;;;;;;;;25.90;88.70;;;;;;5004676;28;19976;-86
2023/07/07 11:55:55;;;;;;;;;;;26.00;82.40;;;;;;4999474;28;19933;-87
2023/07/07 11:58:20;;;;;;;;;;;25.90;82.70;;;;;;4999702;28;19980;-87
2023/07/07 12:00:52;;;;;;;;;;;26.00;81.80;;;;;;4999609;28;20359;-87
2023/07/07 12:03:27;;;;;;;;;;;26.00;82.90;;;;;;4999271;28;20313;-88
2023/07/07 12:05:54;;;;;;;;;;;26.00;84.90;;;;;;4998409;28;20309;-87
2023/07/07 12:08:21;;;;;;;;;;;25.90;85.00;;;;;;5000765;28;19921;-87
2023/07/07 12:10:53;;;;;;;;;;;26.00;81.50;;;;;;4995423;28;19952;-88
2023/07/07 12:13:27;;;;;;;;;;;26.00;85.10;;;;;;4999442;28;19933;-90
2023/07/07 12:16:13;;;;;;;;;;;26.10;83.10;;;;;;4998559;28;19928;-89
2023/07/07 12:18:43;;;;;;;;;;;26.10;79.90;;;;;;4999008;28;20007;-90
2023/07/07 12:21:16;;;;;;;;;;;26.00;82.20;;;;;;4982342;28;19934;-90
2023/07/07 12:23:51;;;;;;;;;;;26.10;80.10;;;;;;4998981;28;20369;-86
2023/07/07 12:26:19;;;;;;;;;;;26.00;79.60;;;;;;4995647;28;20555;-86
2023/07/07 12:28:53;;;;;;;;;;;26.10;77.90;;;;;;4998692;28;20084;-91
2023/07/07 12:31:19;;;;;;;;;;;26.20;81.00;;;;;;4994283;28;20600;-92
2023/07/07 12:33:45;;;;;;;;;;;26.20;79.90;;;;;;4999110;28;19972;-93
2023/07/07 12:36:13;;;;;;;;;;;26.10;77.90;;;;;;4998659;28;19925;-94
2023/07/07 12:38:38;;;;;;;;;;;25.90;80.00;;;;;;4999700;28;19933;-89
2023/07/07 12:41:06;;;;;;;;;;;25.80;79.20;;;;;;4991865;28;19933;-91
2023/07/07 12:43:43;;;;;;;;;;;25.60;83.30;;;;;;4998254;28;19953;-93
2023/07/07 12:46:28;;;;;;;;;;;25.70;80.20;;;;;;4998244;28;19934;-90
2023/07/07 12:48:56;;;;;;;;;;;25.90;76.70;;;;;;4998502;28;19933;-90
2023/07/07 12:51:22;;;;;;;;;;;25.90;75.60;;;;;;5020583;22;19921;-93
2023/07/07 12:53:49;;;;;;;;;;;26.10;79.40;;;;;;5019860;28;19929;-92
2023/07/07 12:56:20;;;;;;;;;;;26.10;76.80;;;;;;5026034;28;20021;-92
2023/07/07 12:58:47;;;;;;;;;;;26.30;77.50;;;;;;5023215;28;21475;-92
2023/07/07 13:01:15;;;;;;;;;;;26.50;72.00;;;;;;5014939;28;19929;-91
2023/07/07 13:03:42;;;;;;;;;;;26.40;74.10;;;;;;5022222;28;19957;-91
2023/07/07 13:06:26;;;;;;;;;;;26.50;71.80;;;;;;5002815;28;20469;-91
2023/07/07 13:09:01;;;;;;;;;;;26.60;70.40;;;;;;5020572;28;19970;-91
2023/07/07 13:11:31;;;;;;;;;;;26.60;68.80;;;;;;5004217;28;19933;-88
2023/07/07 13:13:57;;;;;;;;;;;26.70;70.20;;;;;;5005522;28;19934;-93
2023/07/07 13:16:24;;;;;;;;;;;26.60;71.50;;;;;;5005331;28;19944;-93
2023/07/07 13:18:50;;;;;;;;;;;26.70;70.30;;;;;;5021638;28;20348;-92
2023/07/07 13:21:17;;;;;;;;;;;26.60;70.80;;;;;;5001842;28;19964;-93
2023/07/07 13:23:45;;;;;;;;;;;26.70;71.00;;;;;;5020331;28;19933;-95
2023/07/07 13:26:24;;;;;;;;;;;27.00;68.90;;;;;;5020491;28;19929;-91
2023/07/07 13:28:50;;;;;;;;;;;26.90;71.20;;;;;;5007595;28;19941;-92
2023/07/07 13:31:16;;;;;;;;;;;26.90;72.10;;;;;;5007316;28;19933;-93
2023/07/07 13:33:41;;;;;;;;;;;27.00;70.30;;;;;;4991802;28;19940;-92
2023/07/07 13:36:08;;;;;;;;;;;27.10;71.90;;;;;;5024303;28;19955;-94
2023/07/07 13:38:36;;;;;;;;;;;27.10;67.10;;;;;;5024081;28;19925;-95
2023/07/07 13:41:05;;;;;;;;;;;27.10;64.80;;;;;;5020536;28;19944;-95
2023/07/07 13:43:37;;;;;;;;;;;27.20;66.10;;;;;;5028274;28;19925;-95
2023/07/07 13:46:09;;;;;;;;;;;27.20;67.00;;;;;;5026086;28;19948;-93
2023/07/07 13:48:34;;;;;;;;;;;27.10;66.20;;;;;;5024250;28;19925;-92
2023/07/07 13:51:04;;;;;;;;;;;27.10;64.80;;;;;;4997972;28;19959;-94
2023/07/07 13:53:29;;;;;;;;;;;27.10;67.70;;;;;;5022556;28;19925;-93
2023/07/07 13:55:56;;;;;;;;;;;27.10;68.70;;;;;;5018814;28;19971;-93
2023/07/07 13:58:23;;;;;;;;;;;27.20;67.20;;;;;;5018895;28;19934;-92
2023/07/07 14:00:57;;;;;;;;;;;27.30;66.90;;;;;;5014928;28;20424;-91
2023/07/07 14:03:22;;;;;;;;;;;27.20;66.40;;;;;;5027637;28;19979;-95
2023/07/07 14:05:54;;;;;;;;;;;27.20;64.90;;;;;;5010840;28;19933;-92
2023/07/07 14:08:21;;;;;;;;;;;27.10;64.80;;;;;;5026187;28;20893;-91
2023/07/07 14:10:51;;;;;;;;;;;27.10;64.10;;;;;;5021948;28;19926;-90
2023/07/07 14:13:19;;;;;;;;;;;27.00;64.50;;;;;;5019612;28;19929;-91
2023/07/07 14:15:48;;;;;;;;;;;27.10;64.50;;;;;;5030275;28;19952;-90
2023/07/07 14:18:15;;;;;;;;;;;27.00;65.10;;;;;;5031754;28;19925;-89
2023/07/07 14:20:46;;;;;;;;;;;27.20;64.50;;;;;;5029952;28;19955;-91
2023/07/07 14:23:14;;;;;;;;;;;27.10;65.60;;;;;;5008834;28;19944;-91